Ahoskie, North Carolina
Current Conditions -  °F | °C
As of 8:35 PM on Wednesday 22 Oct 2014 (Local Time) from KASJ Reporting Station
Overcast Overcast  
Wind Chill: 13°   Ceiling: 4600
Heat Index: 13°   Visibility: 10mi
Dew Point:   Wind: 6mph
Humidity: 72%   Direction: 350°N
Pressure: 29.96"   Gusts: NA
Location:  36.29°N, 76.98°W
Report Text: KASJ 230035Z AUTO 35005KT 10SM SCT038 OVC046 13/08 A2996 RMK AO2 T01300080
Loading
Personal Weather Stations






























Interactive Weather Map
Tropical Storm Tracking
New forecast layout! Learn more

10-Day Weather Forecast

Advertisements
Track Severe Weather on mobile